createdAt,value
2023-01-02T00:01:05.052Z,6.64
2023-01-02T00:04:12.924Z,6.65
2023-01-02T00:07:18.496Z,6.65
2023-01-02T00:10:23.911Z,6.64
2023-01-02T00:13:33.254Z,6.63
2023-01-02T00:16:38.848Z,6.62
2023-01-02T00:19:44.602Z,6.61
2023-01-02T00:22:49.897Z,6.60
2023-01-02T00:25:58.897Z,6.60
2023-01-02T00:29:04.731Z,6.59
2023-01-02T00:32:11.012Z,6.60
2023-01-02T00:35:16.362Z,6.59
2023-01-02T00:38:21.485Z,6.58
2023-01-02T00:41:28.276Z,6.55
2023-01-02T00:44:33.842Z,6.56
2023-01-02T00:47:40.043Z,6.55
2023-01-02T00:50:46.269Z,6.56
2023-01-02T00:53:52.606Z,6.56
2023-01-02T00:56:58.743Z,6.56
2023-01-02T01:00:04.843Z,6.55
2023-01-02T01:03:12.599Z,6.53
2023-01-02T01:06:28.443Z,6.52
2023-01-02T01:09:34.250Z,6.51
2023-01-02T01:12:42.049Z,6.51
2023-01-02T01:15:48.994Z,6.49
2023-01-02T01:18:57.278Z,6.49
2023-01-02T01:22:02.459Z,6.48
2023-01-02T01:25:09.083Z,6.48
2023-01-02T01:28:15.612Z,6.45
2023-01-02T01:31:25.624Z,6.44
2023-01-02T01:34:30.568Z,6.42
2023-01-02T01:37:37.161Z,6.41
2023-01-02T01:40:46.532Z,6.38
2023-01-02T01:44:10.349Z,6.32
2023-01-02T01:47:16.248Z,6.29
2023-01-02T01:50:46.413Z,6.26
2023-01-02T01:53:53.298Z,6.23
2023-01-02T01:57:08.076Z,6.20
2023-01-02T02:00:12.990Z,6.18
2023-01-02T02:03:26.029Z,6.18
2023-01-02T02:06:33.026Z,6.17
2023-01-02T02:09:53.554Z,6.19
2023-01-02T02:12:59.679Z,6.19
2023-01-02T02:16:34.035Z,6.17
2023-01-02T02:20:15.555Z,6.15
2023-01-02T02:23:51.682Z,6.12
2023-01-02T02:27:18.105Z,6.11
2023-01-02T02:30:36.657Z,6.08
2023-01-02T02:34:13.264Z,6.05
2023-01-02T02:37:28.867Z,6.04
2023-01-02T02:40:48.502Z,6.03
2023-01-02T02:44:08.924Z,5.99
2023-01-02T02:47:29.243Z,5.97
2023-01-02T02:50:58.733Z,5.91
2023-01-02T02:54:15.422Z,5.88
2023-01-02T02:57:22.740Z,5.84
2023-01-02T03:00:32.853Z,5.81
2023-01-02T03:03:39.221Z,5.78
2023-01-02T03:06:59.400Z,5.75
2023-01-02T03:10:39.474Z,5.72
2023-01-02T03:14:15.191Z,5.66
2023-01-02T03:17:25.238Z,5.60
2023-01-02T03:20:32.530Z,5.53
2023-01-02T03:23:38.864Z,5.48
2023-01-02T03:26:46.904Z,5.44
2023-01-02T03:30:03.975Z,5.41
2023-01-02T03:33:37.198Z,5.37
2023-01-02T03:36:43.856Z,5.35
2023-01-02T03:39:51.063Z,5.34
2023-01-02T03:43:10.031Z,5.31
2023-01-02T03:46:45.793Z,5.32
2023-01-02T03:49:55.436Z,5.32
2023-01-02T03:53:00.601Z,5.31
2023-01-02T03:56:20.310Z,5.34
2023-01-02T03:59:36.279Z,5.36
2023-01-02T04:03:10.450Z,5.37
2023-01-02T04:06:23.107Z,5.37
2023-01-02T04:09:35.849Z,5.36
2023-01-02T04:12:41.661Z,5.38
2023-01-02T04:15:48.804Z,5.40
2023-01-02T04:19:01.338Z,5.41
2023-01-02T04:22:10.720Z,5.43
2023-01-02T04:25:26.164Z,5.43
2023-01-02T04:28:41.715Z,5.44
2023-01-02T04:32:20.422Z,5.42
2023-01-02T04:35:33.076Z,5.44
2023-01-02T04:38:39.200Z,5.43
2023-01-02T04:41:45.687Z,5.41
2023-01-02T04:44:52.068Z,5.41
2023-01-02T04:47:59.270Z,5.41
2023-01-02T04:51:05.642Z,5.41
2023-01-02T04:54:11.626Z,5.41
2023-01-02T04:57:17.328Z,5.42
2023-01-02T05:00:23.308Z,5.44
2023-01-02T05:03:28.335Z,5.45
2023-01-02T05:06:34.268Z,5.46
2023-01-02T05:09:39.639Z,5.42
2023-01-02T05:12:50.625Z,5.42
2023-01-02T05:15:55.824Z,5.40
2023-01-02T05:19:01.080Z,5.39
2023-01-02T05:22:24.097Z,5.40
2023-01-02T05:25:33.711Z,5.44
2023-01-02T05:28:39.275Z,5.48
2023-01-02T05:31:45.947Z,5.50
2023-01-02T05:34:52.396Z,5.52
2023-01-02T05:37:58.289Z,5.56
2023-01-02T05:41:04.270Z,5.58
2023-01-02T05:44:11.924Z,5.60
2023-01-02T05:47:16.424Z,5.61
2023-01-02T05:50:22.113Z,5.64
2023-01-02T05:53:27.103Z,5.66
2023-01-02T05:56:38.381Z,5.69
2023-01-02T05:59:44.734Z,5.72
2023-01-02T06:02:50.870Z,5.75
2023-01-02T06:06:02.375Z,5.80
2023-01-02T06:09:15.861Z,5.83
2023-01-02T06:12:22.226Z,5.88
2023-01-02T06:15:28.344Z,5.93
2023-01-02T06:18:36.638Z,5.97
2023-01-02T06:21:42.291Z,6.02
2023-01-02T06:24:46.496Z,6.09
2023-01-02T06:27:52.437Z,6.15
2023-01-02T06:30:59.057Z,6.19
2023-01-02T06:34:09.881Z,6.27
2023-01-02T06:37:15.101Z,6.34
2023-01-02T06:40:22.050Z,6.40
2023-01-02T06:43:29.051Z,6.47
2023-01-02T06:46:37.186Z,6.54
2023-01-02T06:49:46.016Z,6.61
2023-01-02T06:52:52.429Z,6.70
2023-01-02T06:56:09.105Z,6.78
2023-01-02T06:59:19.264Z,6.86
2023-01-02T07:02:28.052Z,6.94
2023-01-02T07:05:35.022Z,7.00
2023-01-02T07:08:41.354Z,7.07
2023-01-02T07:11:49.193Z,7.11
2023-01-02T07:14:55.022Z,7.16
2023-01-02T07:18:01.827Z,7.21
2023-01-02T07:21:10.723Z,7.25
2023-01-02T07:24:15.863Z,7.29
2023-01-02T07:27:21.193Z,7.34
2023-01-02T07:30:28.520Z,7.39
2023-01-02T07:33:34.278Z,7.43
2023-01-02T07:36:40.031Z,7.48
2023-01-02T07:39:47.675Z,7.52
2023-01-02T07:42:54.986Z,7.54
2023-01-02T07:46:00.514Z,7.58
2023-01-02T07:49:09.027Z,7.61
2023-01-02T07:52:16.142Z,7.67
2023-01-02T07:55:23.130Z,7.73
2023-01-02T07:58:28.981Z,7.79
2023-01-02T08:01:35.882Z,7.87
2023-01-02T08:04:43.198Z,7.93
2023-01-02T08:07:48.180Z,7.99
2023-01-02T08:10:54.982Z,8.06
2023-01-02T08:14:00.739Z,8.10
2023-01-02T08:17:06.781Z,8.16
2023-01-02T08:20:12.093Z,8.19
2023-01-02T08:23:18.511Z,8.25
2023-01-02T08:26:25.581Z,8.33
2023-01-02T08:29:32.533Z,8.39
2023-01-02T08:32:39.182Z,8.45
2023-01-02T08:35:44.886Z,8.51
2023-01-02T08:38:49.751Z,8.56
2023-01-02T08:42:02.515Z,8.60
2023-01-02T08:45:06.736Z,8.65
2023-01-02T08:48:20.675Z,8.72
2023-01-02T08:51:23.649Z,8.77
2023-01-02T08:54:29.688Z,8.75
2023-01-02T08:57:35.644Z,8.76
2023-01-02T09:00:42.679Z,8.81
2023-01-02T09:03:51.915Z,8.86
2023-01-02T09:07:00.276Z,8.93
2023-01-02T09:10:07.741Z,9.00
2023-01-02T09:13:14.200Z,9.08
2023-01-02T09:16:21.101Z,9.15
2023-01-02T09:19:27.707Z,9.24
2023-01-02T09:22:34.959Z,9.33
2023-01-02T09:25:41.882Z,9.41
2023-01-02T09:28:50.711Z,9.53
2023-01-02T09:31:56.360Z,9.66
2023-01-02T09:35:02.838Z,9.76
2023-01-02T09:38:09.393Z,9.86
2023-01-02T09:41:17.963Z,9.97
2023-01-02T09:44:39.437Z,10.05
2023-01-02T09:47:48.152Z,10.15
2023-01-02T09:50:53.592Z,10.24
2023-01-02T09:54:00.845Z,10.30
2023-01-02T09:57:17.513Z,10.35
2023-01-02T10:00:36.003Z,10.41
2023-01-02T10:03:46.232Z,10.47
2023-01-02T10:06:56.578Z,10.50
2023-01-02T10:10:10.657Z,10.52
2023-01-02T10:16:53.086Z,10.60
2023-01-02T10:20:10.215Z,10.69
2023-01-02T10:23:27.157Z,10.77
2023-01-02T10:26:35.499Z,10.88
2023-01-02T10:29:47.755Z,10.96
2023-01-02T10:32:54.896Z,11.01
2023-01-02T10:36:14.616Z,11.07
2023-01-02T10:39:44.004Z,11.12
2023-01-02T10:42:59.388Z,11.19
2023-01-02T10:46:00.875Z,11.20
2023-01-02T10:49:08.224Z,11.23
2023-01-02T10:52:21.120Z,11.25
2023-01-02T10:55:26.536Z,11.28
2023-01-02T10:58:39.817Z,11.30
2023-01-02T11:01:46.143Z,11.35
2023-01-02T11:04:52.213Z,11.45
2023-01-02T11:07:58.674Z,11.52
2023-01-02T11:11:13.662Z,11.58
2023-01-02T11:14:23.904Z,11.62
2023-01-02T11:17:37.184Z,11.67
2023-01-02T11:20:45.834Z,11.73
2023-01-02T11:23:57.842Z,11.78
2023-01-02T11:27:05.857Z,11.84
2023-01-02T11:30:11.950Z,11.91
2023-01-02T11:33:32.103Z,11.97
2023-01-02T11:36:37.819Z,12.03
2023-01-02T11:39:50.581Z,12.10
2023-01-02T11:43:16.756Z,12.13
2023-01-02T11:46:28.765Z,12.16
2023-01-02T11:49:39.610Z,12.20
2023-01-02T11:52:58.776Z,12.25
2023-01-02T11:56:17.581Z,12.29
2023-01-02T11:59:34.096Z,12.31
2023-01-02T12:02:45.660Z,12.31
2023-01-02T12:06:35.305Z,12.31
2023-01-02T12:10:25.398Z,12.31
2023-01-02T12:13:57.110Z,12.36
2023-01-02T12:17:14.680Z,12.36
2023-01-02T12:20:39.806Z,12.34
2023-01-02T12:24:17.090Z,12.34
2023-01-02T12:27:48.296Z,12.37
2023-01-02T12:31:04.650Z,12.41
2023-01-02T12:34:33.153Z,12.44
2023-01-02T12:37:52.015Z,12.44
2023-01-02T12:41:35.038Z,12.46
2023-01-02T12:44:51.518Z,12.48
2023-01-02T12:48:16.292Z,12.50
2023-01-02T12:51:33.116Z,12.50
2023-01-02T12:55:10.044Z,12.51
2023-01-02T12:58:29.510Z,12.50
2023-01-02T13:01:43.953Z,12.50
2023-01-02T13:05:05.665Z,12.51
2023-01-02T13:08:23.519Z,12.52
2023-01-02T13:11:32.412Z,12.52
2023-01-02T13:14:44.077Z,12.51
2023-01-02T13:18:15.303Z,12.48
2023-01-02T13:21:37.609Z,12.43
2023-01-02T13:24:44.176Z,12.37
2023-01-02T13:27:51.083Z,12.31
2023-01-02T13:31:44.174Z,12.25
2023-01-02T13:34:08.955Z,12.16
2023-01-02T13:37:29.840Z,12.07
2023-01-02T13:40:48.596Z,11.97
2023-01-02T13:43:53.297Z,11.85
2023-01-02T13:47:03.884Z,11.71
2023-01-02T13:50:13.819Z,11.56
2023-01-02T13:53:30.593Z,11.39
2023-01-02T13:56:40.222Z,11.19
2023-01-02T13:59:47.218Z,10.99
2023-01-02T14:02:53.999Z,10.82
2023-01-02T14:06:16.666Z,10.65
2023-01-02T14:09:37.754Z,10.48
2023-01-02T14:12:44.364Z,10.31
2023-01-02T14:15:55.026Z,10.18
2023-01-02T14:19:00.734Z,10.08
2023-01-02T14:22:23.617Z,9.97
2023-01-02T14:25:30.934Z,9.84
2023-01-02T14:28:44.510Z,9.68
2023-01-02T14:31:52.558Z,9.52
2023-01-02T14:35:02.925Z,9.39
2023-01-02T14:38:10.180Z,9.31
2023-01-02T14:41:35.849Z,9.22
2023-01-02T14:44:44.376Z,9.13
2023-01-02T14:47:56.966Z,9.03
2023-01-02T14:51:04.272Z,8.94
2023-01-02T14:54:27.834Z,8.86
2023-01-02T14:57:55.783Z,8.81
2023-01-02T15:01:04.803Z,8.76
2023-01-02T15:04:38.010Z,8.71
2023-01-02T15:07:48.158Z,8.65
2023-01-02T15:11:29.152Z,8.59
2023-01-02T15:14:35.630Z,8.57
2023-01-02T15:17:41.789Z,8.55
2023-01-02T15:20:48.488Z,8.51
2023-01-02T15:24:00.042Z,8.44
2023-01-02T15:27:06.908Z,8.41
2023-01-02T15:30:15.281Z,8.37
2023-01-02T15:33:21.148Z,8.35
2023-01-02T15:36:26.992Z,8.33
2023-01-02T15:39:27.246Z,8.27
2023-01-02T15:42:42.094Z,8.22
2023-01-02T15:45:34.740Z,8.16
2023-01-02T15:48:42.059Z,8.13
2023-01-02T15:51:49.355Z,8.13
2023-01-02T15:54:56.284Z,8.15
2023-01-02T15:58:06.446Z,8.14
2023-01-02T16:01:36.474Z,8.12
2023-01-02T16:04:46.124Z,8.11
2023-01-02T16:07:53.611Z,8.07
2023-01-02T16:11:09.975Z,8.05
2023-01-02T16:14:30.200Z,8.01
2023-01-02T16:17:46.255Z,7.97
2023-01-02T16:20:52.155Z,7.89
2023-01-02T16:23:58.324Z,7.81
2023-01-02T16:27:07.086Z,7.73
2023-01-02T16:30:15.298Z,7.65
2023-01-02T16:33:45.307Z,7.58
2023-01-02T16:36:51.370Z,7.53
2023-01-02T16:40:04.613Z,7.45
2023-01-02T16:43:10.931Z,7.41
2023-01-02T16:46:18.568Z,7.35
2023-01-02T16:49:31.571Z,7.27
2023-01-02T16:52:39.773Z,7.18
2023-01-02T16:55:44.194Z,7.04
2023-01-02T16:58:51.774Z,6.96
2023-01-02T17:01:58.549Z,6.92
2023-01-02T17:05:06.806Z,6.87
2023-01-02T17:08:13.580Z,6.78
2023-01-02T17:11:19.338Z,6.71
2023-01-02T17:14:28.325Z,6.62
2023-01-02T17:17:34.973Z,6.54
2023-01-02T17:20:42.700Z,6.46
2023-01-02T17:23:48.944Z,6.41
2023-01-02T17:26:55.034Z,6.39
2023-01-02T17:30:02.907Z,6.34
2023-01-02T17:33:08.806Z,6.29
2023-01-02T17:36:14.524Z,6.26
2023-01-02T17:39:19.229Z,6.19
2023-01-02T17:42:25.719Z,6.14
2023-01-02T17:45:33.410Z,6.10
2023-01-02T17:48:42.522Z,6.07
2023-01-02T17:51:49.258Z,6.06
2023-01-02T17:54:56.971Z,6.04
2023-01-02T17:58:02.122Z,6.03
2023-01-02T18:01:08.384Z,6.00
2023-01-02T18:04:13.893Z,5.94
2023-01-02T18:07:19.046Z,5.91
2023-01-02T18:10:32.570Z,5.86
2023-01-02T18:13:35.828Z,5.79
2023-01-02T18:16:46.768Z,5.74
2023-01-02T18:19:52.433Z,5.68
2023-01-02T18:22:57.481Z,5.64
2023-01-02T18:26:04.361Z,5.57
2023-01-02T18:29:14.170Z,5.51
2023-01-02T18:32:34.707Z,5.45
2023-01-02T18:36:00.658Z,5.38
2023-01-02T18:38:47.702Z,5.32
2023-01-02T18:41:35.588Z,5.30
2023-01-02T18:44:32.448Z,5.31
2023-01-02T18:47:43.350Z,5.31
2023-01-02T18:50:53.495Z,5.33
2023-01-02T18:54:06.584Z,5.35
2023-01-02T18:57:32.805Z,5.37
2023-01-02T19:00:44.719Z,5.35
2023-01-02T19:03:50.295Z,5.32
2023-01-02T19:07:03.708Z,5.29
2023-01-02T19:10:36.921Z,5.25
2023-01-02T19:13:43.677Z,5.21
2023-01-02T19:16:50.598Z,5.16
2023-01-02T19:19:57.321Z,5.11
2023-01-02T19:23:03.950Z,5.08
2023-01-02T19:26:09.105Z,5.02
2023-01-02T19:29:39.446Z,4.98
2023-01-02T19:32:47.719Z,4.92
2023-01-02T19:36:15.364Z,4.95
2023-01-02T19:39:41.699Z,5.00
2023-01-02T19:42:48.760Z,5.05
2023-01-02T19:45:54.729Z,5.09
2023-01-02T19:49:00.380Z,5.10
2023-01-02T19:52:07.600Z,5.15
2023-01-02T19:55:13.721Z,5.20
2023-01-02T19:58:20.857Z,5.22
2023-01-02T20:01:29.826Z,5.26
2023-01-02T20:04:37.100Z,5.27
2023-01-02T20:07:43.480Z,5.29
2023-01-02T20:10:52.117Z,5.31
2023-01-02T20:13:58.915Z,5.35
2023-01-02T20:17:07.885Z,5.40
2023-01-02T20:20:14.048Z,5.40
2023-01-02T20:23:21.012Z,5.41
2023-01-02T20:26:27.391Z,5.45
2023-01-02T20:29:33.920Z,5.47
2023-01-02T20:32:41.677Z,5.48
2023-01-02T20:35:48.193Z,5.43
2023-01-02T20:38:56.459Z,5.41
2023-01-02T20:42:01.760Z,5.39
2023-01-02T20:45:08.582Z,5.37
2023-01-02T20:48:16.363Z,5.33
2023-01-02T20:51:21.525Z,5.29
2023-01-02T20:54:27.370Z,5.27
2023-01-02T20:57:33.365Z,5.28
2023-01-02T21:00:39.773Z,5.29
2023-01-02T21:03:46.199Z,5.29
2023-01-02T21:06:53.982Z,5.23
2023-01-02T21:10:01.882Z,5.15
2023-01-02T21:13:20.118Z,5.09
2023-01-02T21:16:26.202Z,5.03
2023-01-02T21:19:31.576Z,4.95
2023-01-02T21:22:36.769Z,4.85
2023-01-02T21:25:43.267Z,4.73
2023-01-02T21:28:53.778Z,4.67
2023-01-02T21:32:00.039Z,4.61
2023-01-02T21:35:05.471Z,4.60
2023-01-02T21:38:12.044Z,4.60
2023-01-02T21:41:35.602Z,4.60
2023-01-02T21:44:42.259Z,4.59
2023-01-02T21:47:48.908Z,4.55
2023-01-02T21:50:56.802Z,4.53
2023-01-02T21:54:03.429Z,4.53
2023-01-02T21:57:10.560Z,4.52
2023-01-02T22:00:15.729Z,4.49
2023-01-02T22:03:21.067Z,4.47
2023-01-02T22:06:28.489Z,4.49
2023-01-02T22:09:37.053Z,4.48
2023-01-02T22:12:43.364Z,4.51
2023-01-02T22:15:49.770Z,4.52
2023-01-02T22:18:56.174Z,4.53
2023-01-02T22:22:03.209Z,4.54
2023-01-02T22:25:08.583Z,4.52
2023-01-02T22:28:15.469Z,4.49
2023-01-02T22:31:21.980Z,4.45
2023-01-02T22:34:29.130Z,4.43
2023-01-02T22:37:36.893Z,4.42
2023-01-02T22:40:43.751Z,4.43
2023-01-02T22:43:54.504Z,4.44
2023-01-02T22:47:04.190Z,4.40
2023-01-02T22:50:12.469Z,4.30
2023-01-02T22:53:21.525Z,4.23
2023-01-02T22:56:36.998Z,4.18
2023-01-02T22:59:43.730Z,4.12
2023-01-02T23:02:51.169Z,4.07
2023-01-02T23:05:57.680Z,4.05
2023-01-02T23:09:05.657Z,4.04
2023-01-02T23:12:11.793Z,4.03
2023-01-02T23:15:20.992Z,3.96
2023-01-02T23:18:44.740Z,3.93
2023-01-02T23:21:52.055Z,3.92
2023-01-02T23:24:57.398Z,3.91
2023-01-02T23:28:05.143Z,3.91
2023-01-02T23:31:11.095Z,3.85
2023-01-02T23:34:17.818Z,3.82
2023-01-02T23:37:23.320Z,3.75
2023-01-02T23:40:34.099Z,3.75
2023-01-02T23:43:37.114Z,3.74
2023-01-02T23:46:42.502Z,3.73
2023-01-02T23:49:48.056Z,3.73
2023-01-02T23:52:54.205Z,3.75
2023-01-02T23:56:00.605Z,3.75
2023-01-02T23:59:10.379Z,3.72
